Oxon Hill, MD (20750)

9:30 PM EDT on April 18, 2015 (GMT -0400)
Rosemont Park | | Change Station
CLOSE
Current Station
Personal Weather Station
Location: Alexandria, VA
Elevation: 26 ft
Nearby Weather Stations

Elev 26 ft 38.81 °N, 77.06 °W | Updated 11 minutes ago

Partly Cloudy
Partly Cloudy
69.1 °F
Feels Like 69.1 °F
N
0.0
Wind Variable Wind from SE
Gusts 0.0 mph

Today
High -- | Low -- °F
--% Chance of Precip.
Yesterday
High -- | Low -- °F
Precip. -- in
6:27 AM 7:47 PM
New Moon, 0% visible
Pressure 29.98 in
Visibility 10.0 miles
Clouds Mostly Cloudy 25000 ft
Dew Point 53 °F
Humidity 56%
Rainfall 0.00 in
Snow Depth Not available.
UV 0 out of 12
Pollen 11.50 out of 12
Air Quality Not available.
Flu Activity Regional
METAR KDCA 190052Z 18006KT 10SM BKN250 22/11 A2998 RMK AO2 SLP152 T02170111 $

More Conditions Fewer Conditions

Pressure 29.98 in
Visibility 10.0 miles
Clouds Mostly Cloudy 25000 ft
Dew Point 53 °F
Humidity 56%
Rainfall 0.00 in
Snow Depth Not available.
UV 0 out of 12
Pollen 11.50 out of 12
Air Quality Not available.
Flu Activity Regional
METAR KDCA 190052Z 18006KT 10SM BKN250 22/11 A2998 RMK AO2 SLP152 T02170111 $

More Conditions Fewer Conditions

10-Day Weather Forecast

Almanac

Astronomy

Apr. 18, 2015 Rise Set
Actual Time
Civil Twilight
Nautical Twilight
Astronomical Twilight
Moon
Length of Visible Light
Length of Day
Tomorrow will be .
, % of the Moon is Illuminated

Today's Extremes

State Highs State Lows

Community

WunderPhotos

Upload Photos

1,814,626 photos uploaded!

WunderBlogs® & News

Nearby

Air Quality

  Air Quality AQ Index Pollutant
Not available.

Snow Depth

Station Depth Elevation

Earthquake Activity

City Distance Mag. Time & Date
Minimum magnitude displayed is 2.5.

Coastal Water Temperatures

Place Temperature

Stations

Nearby Weather Stations

Station Location Temp. Windchill Dew Point Humidity Wind Precip. Elev Updated Type